Metar Aviation Weather Data FACT Cape Town International

21°C Temp
10°C Dewpoint
50% Humidity
Temperature
29 KM/H
18 MPH
16 KTS
170°
Due South

Wind Speed
Partly Cloudy
Conditions
Pressure 1022 (hPa) - 30.18 (in)
Visibility 6.2 (mi) - 10.0 (km)

Current Conditions
FACT
Cape Town International
Metar :FACT 170900Z 17016KT 9999 FEW030 21/10 Q1022 NOSIG
Sat 17th November 11:00 am

Cape Town International
  Metar Aviation API Data Provided by https://www.checkwx.com/ PHP scripts by weather34.com ©2018